Time;durP1;ratioP1;P1;durP2;ratioP2;P2;SDS_P1;SDS_P2;PMS_P1;PMS_P2;Temp;Humidity;BMP_temperature;BMP_pressure;BME280_temperature;BME280_humidity;BME280_pressure;Samples;Min_cycle;Max_cycle;Signal;HPM_P1;HPM_P2
2021/09/21 00:00:00;;;;;;;9.37;8.30;;;14.50;99.90;;;;;;5040621;28;20453;-81
2021/09/21 00:02:27;;;;;;;10.73;8.40;;;14.50;99.90;;;;;;5042424;28;20954;-80
2021/09/21 00:04:54;;;;;;;12.07;8.90;;;14.50;99.90;;;;;;5043773;28;20492;-81
2021/09/21 00:07:21;;;;;;;10.17;9.20;;;14.60;99.90;;;;;;5039535;28;20950;-81
2021/09/21 00:09:49;;;;;;;10.50;9.60;;;14.50;99.90;;;;;;5044586;28;20454;-81
2021/09/21 00:12:16;;;;;;;10.30;9.30;;;14.60;99.90;;;;;;5043178;28;20493;-80
2021/09/21 00:14:43;;;;;;;10.57;9.40;;;14.60;99.90;;;;;;5050557;28;20474;-80
2021/09/21 00:17:10;;;;;;;10.03;9.13;;;14.50;99.90;;;;;;5049077;28;20442;-82
2021/09/21 00:19:37;;;;;;;11.23;8.57;;;14.50;99.90;;;;;;5048066;28;20878;-81
2021/09/21 00:22:04;;;;;;;10.83;9.87;;;14.60;99.90;;;;;;5047762;28;20449;-81
2021/09/21 00:24:31;;;;;;;11.00;9.90;;;14.60;99.90;;;;;;5046674;28;20485;-82
2021/09/21 00:26:59;;;;;;;12.20;10.33;;;14.60;99.90;;;;;;5046866;28;20449;-81
2021/09/21 00:29:26;;;;;;;10.07;8.97;;;14.30;99.90;;;;;;5047190;28;20454;-81
2021/09/21 00:31:59;;;;;;;9.80;8.80;;;14.30;99.90;;;;;;5047654;28;20453;-81
2021/09/21 00:34:28;;;;;;;10.70;9.13;;;14.40;99.90;;;;;;5048035;28;20500;-81
2021/09/21 00:36:55;;;;;;;9.97;9.00;;;14.40;99.90;;;;;;5047194;28;20480;-81
2021/09/21 00:39:22;;;;;;;10.77;9.67;;;14.50;99.90;;;;;;5047259;28;20820;-81
2021/09/21 00:41:50;;;;;;;9.60;8.60;;;14.50;99.90;;;;;;5037115;28;20461;-81
2021/09/21 00:44:20;;;;;;;9.40;8.70;;;14.50;99.90;;;;;;5036517;28;21001;-81
2021/09/21 00:46:47;;;;;;;10.77;9.87;;;14.60;99.90;;;;;;5036547;28;20449;-81
2021/09/21 00:49:14;;;;;;;10.27;9.27;;;14.50;99.90;;;;;;5037414;28;20450;-81
2021/09/21 00:51:40;;;;;;;10.90;9.87;;;14.50;99.90;;;;;;5036193;28;20457;-81
2021/09/21 00:54:07;;;;;;;11.17;10.10;;;14.40;99.90;;;;;;5036036;28;20469;-81
2021/09/21 00:56:34;;;;;;;12.00;10.90;;;14.40;99.90;;;;;;5035706;28;20456;-83
2021/09/21 00:59:01;;;;;;;11.10;10.07;;;14.40;99.90;;;;;;5038992;28;20453;-83
2021/09/21 01:01:29;;;;;;;10.83;9.90;;;14.20;99.90;;;;;;5039523;28;20460;-83
2021/09/21 01:03:56;;;;;;;11.33;10.23;;;14.20;99.90;;;;;;5039069;28;20472;-83
2021/09/21 01:06:22;;;;;;;10.83;9.83;;;14.10;99.90;;;;;;5038704;28;20863;-82
2021/09/21 01:08:49;;;;;;;16.60;10.30;;;14.00;99.90;;;;;;5038750;28;20449;-83
2021/09/21 01:11:16;;;;;;;12.57;11.27;;;14.00;99.90;;;;;;5039534;28;20453;-83
2021/09/21 01:13:43;;;;;;;11.00;9.90;;;14.10;99.90;;;;;;5038347;28;20481;-82
2021/09/21 01:16:10;;;;;;;10.80;9.60;;;14.20;99.90;;;;;;5038337;28;20449;-83
2021/09/21 01:18:39;;;;;;;12.90;11.67;;;14.20;99.90;;;;;;5038840;28;20460;-82
2021/09/21 01:21:07;;;;;;;12.60;11.40;;;14.20;99.90;;;;;;5038949;28;20472;-83
2021/09/21 01:23:46;;;;;;;13.00;11.70;;;14.20;99.90;;;;;;5038713;28;20485;-82
2021/09/21 01:26:13;;;;;;;12.00;10.90;;;14.20;99.90;;;;;;5038806;28;20500;-82
2021/09/21 01:28:42;;;;;;;15.03;11.87;;;14.10;99.90;;;;;;5038926;28;20472;-83
2021/09/21 01:31:09;;;;;;;12.00;10.87;;;14.00;99.90;;;;;;5044897;28;20453;-81
2021/09/21 01:33:36;;;;;;;12.00;10.63;;;14.00;99.90;;;;;;5046657;28;20811;-81
2021/09/21 01:36:03;;;;;;;13.03;11.60;;;14.00;99.90;;;;;;5045579;28;20456;-82
2021/09/21 01:38:30;;;;;;;12.47;11.20;;;13.90;99.90;;;;;;5040283;28;20451;-81
2021/09/21 01:40:58;;;;;;;12.43;10.70;;;14.00;99.90;;;;;;5036451;28;20536;-82
2021/09/21 01:43:25;;;;;;;13.80;11.07;;;14.00;99.90;;;;;;5036604;28;20480;-82
2021/09/21 01:45:52;;;;;;;12.93;10.67;;;14.10;99.90;;;;;;5035630;28;21008;-81
2021/09/21 01:48:19;;;;;;;10.90;9.90;;;14.00;99.90;;;;;;5035691;28;20453;-82
2021/09/21 01:50:50;;;;;;;12.07;10.87;;;13.80;99.90;;;;;;5035581;28;20464;-81
2021/09/21 01:53:24;;;;;;;12.63;11.33;;;13.90;99.90;;;;;;5041140;28;20469;-84
2021/09/21 01:58:48;;;;;;;12.93;11.57;;;14.00;99.90;;;;;;5043438;28;20427;-82
2021/09/21 02:01:17;;;;;;;12.30;11.00;;;13.90;99.90;;;;;;5035668;28;20457;-82
2021/09/21 02:03:44;;;;;;;14.50;13.20;;;13.90;99.90;;;;;;5035816;28;20472;-82
2021/09/21 02:06:11;;;;;;;12.73;11.47;;;13.90;99.90;;;;;;5034932;28;20495;-82
2021/09/21 02:08:38;;;;;;;13.10;11.27;;;14.00;99.90;;;;;;5035725;28;21077;-82
2021/09/21 02:11:05;;;;;;;12.13;10.93;;;14.00;99.90;;;;;;5035184;28;20453;-82
2021/09/21 02:13:32;;;;;;;13.27;11.30;;;14.00;99.90;;;;;;5035791;28;20489;-81
2021/09/21 02:16:00;;;;;;;11.70;10.67;;;13.90;99.90;;;;;;5037031;28;20457;-82
2021/09/21 02:18:27;;;;;;;12.40;11.20;;;13.90;99.90;;;;;;5036607;28;20815;-82
2021/09/21 02:20:54;;;;;;;12.70;10.80;;;13.80;99.90;;;;;;5035508;28;20961;-82
2021/09/21 02:23:21;;;;;;;13.57;11.50;;;13.80;99.90;;;;;;5034512;28;20465;-82
2021/09/21 02:25:48;;;;;;;13.10;11.90;;;13.90;99.90;;;;;;5045186;28;20485;-82
2021/09/21 02:28:16;;;;;;;12.67;11.13;;;13.90;99.90;;;;;;5045181;28;20445;-82
2021/09/21 02:30:42;;;;;;;12.87;11.57;;;13.80;99.90;;;;;;5045680;28;20452;-82
2021/09/21 02:33:12;;;;;;;12.93;11.67;;;13.80;99.90;;;;;;5045977;28;20477;-82
2021/09/21 02:35:40;;;;;;;12.47;10.93;;;13.80;99.90;;;;;;5045869;28;20865;-82
2021/09/21 02:38:07;;;;;;;12.23;11.00;;;13.80;99.90;;;;;;5046040;28;20446;-81
2021/09/21 02:40:34;;;;;;;13.83;10.40;;;13.70;99.90;;;;;;5045387;28;20472;-82
2021/09/21 02:43:00;;;;;;;14.47;11.60;;;13.70;99.90;;;;;;5045224;28;20486;-81
2021/09/21 02:45:27;;;;;;;10.67;9.77;;;13.80;99.90;;;;;;5039201;28;20479;-82
2021/09/21 02:47:54;;;;;;;12.27;10.97;;;13.90;99.90;;;;;;5045687;28;20449;-82
2021/09/21 02:50:22;;;;;;;12.63;10.90;;;13.90;99.90;;;;;;5045485;28;20445;-82
2021/09/21 02:52:49;;;;;;;13.80;12.10;;;13.90;99.90;;;;;;5049111;28;21008;-82
2021/09/21 02:55:15;;;;;;;12.10;10.80;;;13.90;99.90;;;;;;5050067;28;20445;-82
2021/09/21 02:57:42;;;;;;;11.43;10.33;;;13.70;99.90;;;;;;5050353;28;20463;-82
2021/09/21 03:00:12;;;;;;;11.30;10.00;;;13.70;99.90;;;;;;5049097;28;20543;-82
2021/09/21 03:02:40;;;;;;;11.90;10.70;;;13.70;99.90;;;;;;5049843;28;20437;-82
2021/09/21 03:05:10;;;;;;;12.97;11.07;;;13.70;99.90;;;;;;5049445;28;20557;-82
2021/09/21 03:07:40;;;;;;;12.77;11.40;;;13.60;99.90;;;;;;5049494;28;20445;-83
2021/09/21 03:10:25;;;;;;;12.17;10.67;;;13.50;99.90;;;;;;5048878;28;20466;-81
2021/09/21 03:13:14;;;;;;;11.83;10.63;;;13.40;99.90;;;;;;5046366;28;20483;-82
2021/09/21 03:18:26;;;;;;;12.73;11.40;;;13.60;99.90;;;;;;5038424;28;20452;-82
2021/09/21 03:20:53;;;;;;;11.50;10.47;;;13.40;99.90;;;;;;5038813;28;20447;-82
2021/09/21 03:23:21;;;;;;;11.60;10.53;;;13.50;99.90;;;;;;5037841;28;21041;-82
2021/09/21 03:25:48;;;;;;;12.70;11.60;;;13.60;99.90;;;;;;5038014;28;20481;-82
2021/09/21 03:28:15;;;;;;;11.00;9.93;;;13.70;99.90;;;;;;5037709;28;20465;-82
2021/09/21 03:30:42;;;;;;;11.57;10.47;;;13.80;99.90;;;;;;5040807;28;20453;-82
2021/09/21 03:33:08;;;;;;;12.80;11.43;;;13.90;99.90;;;;;;5041442;28;20468;-82
2021/09/21 03:35:35;;;;;;;12.00;10.60;;;13.90;99.90;;;;;;5040526;28;20452;-82
2021/09/21 03:38:02;;;;;;;9.70;8.73;;;13.90;99.90;;;;;;5040110;28;20460;-82
2021/09/21 03:40:31;;;;;;;11.33;10.13;;;13.80;99.90;;;;;;5040878;28;20463;-82
2021/09/21 03:42:57;;;;;;;12.90;10.90;;;13.80;99.90;;;;;;5040740;28;20491;-82
2021/09/21 03:45:26;;;;;;;12.23;10.87;;;13.80;99.90;;;;;;5038494;28;20855;-82
2021/09/21 03:47:53;;;;;;;12.90;11.60;;;13.80;99.90;;;;;;5037789;28;20457;-82
2021/09/21 03:50:19;;;;;;;12.60;11.37;;;13.80;99.90;;;;;;5037614;28;20452;-82
2021/09/21 03:52:46;;;;;;;11.00;9.97;;;13.90;99.90;;;;;;5036809;28;20986;-82
2021/09/21 03:55:14;;;;;;;13.53;11.33;;;13.90;99.90;;;;;;5037729;28;20472;-82
2021/09/21 03:57:42;;;;;;;11.60;10.40;;;13.90;99.90;;;;;;5037896;28;20492;-82
2021/09/21 04:00:11;;;;;;;11.83;10.60;;;13.90;99.90;;;;;;5038283;28;20453;-82
2021/09/21 04:02:37;;;;;;;14.00;11.37;;;13.70;99.90;;;;;;5035969;28;20457;-82
2021/09/21 04:05:05;;;;;;;11.73;10.53;;;13.70;99.90;;;;;;5037514;28;20460;-82
2021/09/21 04:07:32;;;;;;;12.03;10.73;;;13.70;99.90;;;;;;5036818;28;20814;-82
2021/09/21 04:09:58;;;;;;;12.00;10.90;;;13.70;99.90;;;;;;5037831;28;20459;-82
2021/09/21 04:12:25;;;;;;;10.93;9.90;;;13.60;99.90;;;;;;5037087;28;20464;-81
2021/09/21 04:14:53;;;;;;;12.07;10.93;;;13.60;99.90;;;;;;5038805;28;20937;-84
2021/09/21 04:17:20;;;;;;;12.00;10.37;;;13.60;99.90;;;;;;5039655;28;20476;-84
2021/09/21 04:19:46;;;;;;;12.07;10.87;;;13.60;99.90;;;;;;5039854;28;20453;-84
2021/09/21 04:22:13;;;;;;;12.90;11.60;;;13.60;99.90;;;;;;5040079;28;20455;-84
2021/09/21 04:24:40;;;;;;;11.70;10.27;;;13.70;99.90;;;;;;5040332;28;20468;-83
2021/09/21 04:27:07;;;;;;;13.07;11.80;;;13.60;99.90;;;;;;5039534;28;20847;-84
2021/09/21 04:29:34;;;;;;;12.87;11.30;;;13.50;99.90;;;;;;5040491;28;20964;-83
2021/09/21 04:32:03;;;;;;;11.40;10.20;;;13.50;99.90;;;;;;5039491;28;20461;-83
2021/09/21 04:34:31;;;;;;;12.30;11.10;;;13.60;99.90;;;;;;5040096;28;20537;-82
2021/09/21 04:36:58;;;;;;;12.77;11.30;;;13.60;99.90;;;;;;5039754;28;20449;-83
2021/09/21 04:39:25;;;;;;;12.87;11.57;;;13.60;99.90;;;;;;5040352;28;20449;-84
2021/09/21 04:41:52;;;;;;;13.07;11.30;;;13.50;99.90;;;;;;5039811;28;20463;-82
2021/09/21 04:44:18;;;;;;;13.77;12.40;;;13.30;99.90;;;;;;5039393;28;20474;-82
2021/09/21 04:46:46;;;;;;;11.70;10.50;;;13.40;99.90;;;;;;5038158;28;21025;-81
2021/09/21 04:49:14;;;;;;;13.47;12.27;;;13.50;99.90;;;;;;5039135;28;20456;-81
2021/09/21 04:51:42;;;;;;;13.77;12.23;;;13.50;99.90;;;;;;5038757;28;20955;-82
2021/09/21 04:54:09;;;;;;;11.87;10.77;;;13.50;99.90;;;;;;5038930;28;20505;-81
2021/09/21 04:56:36;;;;;;;11.93;10.77;;;13.40;99.90;;;;;;5038795;28;20452;-82
2021/09/21 04:59:02;;;;;;;11.30;10.07;;;13.30;99.90;;;;;;5040076;28;20457;-81
2021/09/21 05:01:29;;;;;;;11.50;10.40;;;13.20;99.90;;;;;;5038782;28;20461;-82
2021/09/21 05:03:56;;;;;;;14.73;11.60;;;13.10;99.90;;;;;;5039219;28;20985;-81
2021/09/21 05:06:24;;;;;;;12.47;11.27;;;13.10;99.90;;;;;;5038214;28;20487;-81
2021/09/21 05:08:51;;;;;;;12.90;11.80;;;12.90;99.90;;;;;;5039476;28;20540;-81
2021/09/21 05:11:18;;;;;;;13.33;11.93;;;12.70;99.90;;;;;;5038178;28;20479;-81
2021/09/21 05:13:45;;;;;;;14.47;11.63;;;12.80;99.90;;;;;;5038543;28;20487;-81
2021/09/21 05:16:12;;;;;;;11.47;10.37;;;12.80;99.90;;;;;;5038133;28;20459;-81
2021/09/21 05:18:38;;;;;;;12.67;11.40;;;12.70;99.90;;;;;;5038053;28;20468;-81
2021/09/21 05:21:05;;;;;;;13.43;12.17;;;12.60;99.90;;;;;;5039033;28;20456;-81
2021/09/21 05:23:33;;;;;;;12.37;11.03;;;12.50;99.90;;;;;;5037952;28;20469;-81
2021/09/21 05:26:00;;;;;;;12.40;11.17;;;12.60;99.90;;;;;;5038365;28;20525;-81
2021/09/21 05:28:27;;;;;;;12.97;11.57;;;12.60;99.90;;;;;;5038551;28;20444;-82
2021/09/21 05:30:53;;;;;;;10.77;9.77;;;12.60;99.90;;;;;;5038490;28;20793;-81
2021/09/21 05:33:20;;;;;;;12.37;11.13;;;12.60;99.90;;;;;;5038585;28;20472;-81
2021/09/21 05:35:47;;;;;;;11.70;10.70;;;12.40;99.90;;;;;;5036126;28;20449;-81
2021/09/21 05:38:14;;;;;;;13.10;11.70;;;12.40;99.90;;;;;;5036649;28;20449;-81
2021/09/21 05:40:42;;;;;;;12.30;11.00;;;12.30;99.90;;;;;;5039138;28;20464;-81
2021/09/21 05:43:09;;;;;;;12.90;11.50;;;12.40;99.90;;;;;;5037505;28;20477;-81
2021/09/21 05:45:38;;;;;;;13.93;12.60;;;12.30;99.90;;;;;;5036921;28;20467;-81
2021/09/21 05:48:07;;;;;;;12.13;10.90;;;12.40;99.90;;;;;;5037493;28;20460;-81
2021/09/21 05:50:34;;;;;;;12.43;11.20;;;12.40;99.90;;;;;;5037309;28;20459;-81
2021/09/21 05:53:00;;;;;;;12.47;10.47;;;12.40;99.90;;;;;;5037801;28;20473;-81
2021/09/21 05:55:28;;;;;;;13.53;11.37;;;12.40;99.90;;;;;;5037099;28;20445;-81
2021/09/21 05:57:56;;;;;;;13.17;11.97;;;12.30;99.90;;;;;;5037797;28;20961;-81
2021/09/21 06:00:23;;;;;;;11.57;10.53;;;12.30;99.90;;;;;;5037015;28;20845;-81
2021/09/21 06:02:50;;;;;;;10.77;9.73;;;12.40;99.90;;;;;;5037287;28;20477;-81
2021/09/21 06:05:16;;;;;;;12.63;10.60;;;12.50;99.90;;;;;;5037244;28;20794;-80
2021/09/21 06:07:48;;;;;;;12.60;11.07;;;12.40;99.90;;;;;;5037101;28;21020;-81
2021/09/21 06:10:14;;;;;;;15.43;11.10;;;12.40;99.90;;;;;;5037183;28;20453;-81
2021/09/21 06:12:44;;;;;;;12.60;11.40;;;12.50;99.90;;;;;;5036509;28;20462;-81
2021/09/21 06:15:14;;;;;;;13.43;12.10;;;12.60;99.90;;;;;;5034254;28;20529;-81
2021/09/21 06:17:42;;;;;;;15.90;12.40;;;12.80;99.90;;;;;;5025582;28;20441;-81
2021/09/21 06:20:10;;;;;;;12.97;11.67;;;12.90;99.90;;;;;;5024784;28;20521;-81
2021/09/21 06:22:38;;;;;;;13.10;11.70;;;13.00;99.90;;;;;;5025084;28;20460;-81
2021/09/21 06:25:05;;;;;;;14.63;12.33;;;13.00;99.90;;;;;;5025021;28;20457;-81
2021/09/21 06:27:32;;;;;;;12.20;11.00;;;13.10;99.90;;;;;;5028901;28;20484;-81
2021/09/21 06:30:19;;;;;;;11.77;10.67;;;13.10;99.90;;;;;;5031188;28;20445;-80
2021/09/21 06:32:47;;;;;;;12.57;10.43;;;13.10;99.90;;;;;;5027981;28;20488;-81
2021/09/21 06:35:15;;;;;;;12.57;11.17;;;13.00;99.90;;;;;;5029574;28;20468;-81
2021/09/21 06:37:42;;;;;;;10.67;9.57;;;12.90;99.90;;;;;;5030220;28;20480;-81
2021/09/21 06:40:10;;;;;;;11.70;10.50;;;12.90;99.90;;;;;;5030438;28;20452;-81
2021/09/21 06:42:41;;;;;;;12.60;11.30;;;13.00;99.90;;;;;;5035497;28;20448;-82
2021/09/21 06:45:13;;;;;;;12.90;11.30;;;13.00;99.90;;;;;;5049217;28;20467;-84
2021/09/21 06:47:40;;;;;;;14.03;11.13;;;12.90;99.90;;;;;;5051528;28;20493;-84
2021/09/21 06:50:09;;;;;;;10.93;9.57;;;12.90;99.90;;;;;;5044190;28;20939;-84
2021/09/21 06:52:36;;;;;;;10.63;9.53;;;12.80;99.90;;;;;;5045683;28;20452;-84
2021/09/21 06:55:03;;;;;;;13.07;10.63;;;12.90;99.90;;;;;;5047312;28;20453;-84
2021/09/21 06:57:30;;;;;;;13.37;11.63;;;12.80;99.90;;;;;;5048388;28;20455;-82
2021/09/21 06:59:58;;;;;;;12.57;11.37;;;12.80;99.90;;;;;;5048304;28;20448;-80
2021/09/21 07:02:24;;;;;;;13.70;12.20;;;12.80;99.90;;;;;;5040708;28;20460;-81
2021/09/21 07:04:51;;;;;;;12.60;10.70;;;12.70;99.90;;;;;;5038612;28;20449;-81
2021/09/21 07:07:19;;;;;;;13.20;9.67;;;12.70;99.90;;;;;;5038641;28;20495;-80
2021/09/21 07:09:46;;;;;;;13.00;11.70;;;12.80;99.90;;;;;;5039312;28;20464;-80
2021/09/21 07:12:13;;;;;;;13.57;11.40;;;12.80;99.90;;;;;;5038931;28;20825;-81
2021/09/21 07:14:39;;;;;;;11.77;10.50;;;12.90;99.90;;;;;;5038372;28;20481;-80
2021/09/21 07:17:06;;;;;;;13.67;12.27;;;12.90;99.90;;;;;;5038598;28;20464;-81
2021/09/21 07:19:33;;;;;;;13.93;11.17;;;13.00;99.90;;;;;;5038363;28;20480;-81
2021/09/21 07:22:00;;;;;;;12.30;11.10;;;13.20;99.90;;;;;;5038377;28;20452;-81
2021/09/21 07:24:28;;;;;;;10.47;9.37;;;13.30;99.90;;;;;;5038641;28;20483;-81
2021/09/21 07:26:54;;;;;;;12.10;10.53;;;13.50;99.90;;;;;;5038456;28;20499;-81
2021/09/21 07:29:21;;;;;;;10.03;9.13;;;13.50;99.90;;;;;;5038604;28;20448;-81
2021/09/21 07:31:49;;;;;;;10.83;9.90;;;13.50;99.90;;;;;;5038772;28;20468;-81
2021/09/21 07:34:15;;;;;;;10.77;9.67;;;13.70;99.90;;;;;;5038302;28;20469;-81
2021/09/21 07:36:42;;;;;;;9.97;9.20;;;13.90;99.90;;;;;;5037673;28;20449;-81
2021/09/21 07:39:09;;;;;;;10.60;9.60;;;14.20;99.90;;;;;;5038980;28;21004;-80
2021/09/21 07:41:38;;;;;;;9.77;8.87;;;14.30;99.90;;;;;;5038205;28;20457;-81
2021/09/21 07:44:05;;;;;;;10.33;9.03;;;14.30;99.90;;;;;;5037936;28;20491;-81
2021/09/21 07:46:32;;;;;;;10.53;9.53;;;14.50;99.90;;;;;;5037900;28;20481;-81
2021/09/21 07:48:58;;;;;;;10.50;9.50;;;14.60;99.90;;;;;;5038409;28;20898;-81
2021/09/21 07:51:25;;;;;;;10.00;9.00;;;14.70;99.90;;;;;;5039864;28;20450;-81
2021/09/21 07:53:52;;;;;;;10.97;9.70;;;14.70;99.90;;;;;;5042061;28;20478;-81
2021/09/21 07:56:19;;;;;;;10.57;9.57;;;14.60;99.90;;;;;;5038615;28;20455;-81
2021/09/21 07:58:47;;;;;;;9.13;8.33;;;14.60;99.90;;;;;;5038323;28;20461;-81
2021/09/21 08:01:14;;;;;;;8.97;8.03;;;14.80;99.90;;;;;;5037520;28;20460;-81
2021/09/21 08:03:40;;;;;;;11.00;10.00;;;14.90;99.90;;;;;;5037709;28;20472;-81
2021/09/21 08:06:07;;;;;;;9.17;8.37;;;15.00;99.90;;;;;;5037104;28;20949;-81
2021/09/21 08:08:34;;;;;;;9.83;8.90;;;15.20;99.90;;;;;;5037768;28;20507;-81
2021/09/21 08:11:02;;;;;;;10.90;8.20;;;15.20;99.90;;;;;;5037702;28;20449;-81
2021/09/21 08:13:30;;;;;;;9.50;8.53;;;15.20;99.50;;;;;;5037752;28;20567;-81
2021/09/21 08:15:58;;;;;;;9.10;8.20;;;15.30;99.30;;;;;;5037412;28;20989;-81
2021/09/21 08:18:25;;;;;;;9.67;8.80;;;15.50;99.00;;;;;;5037481;28;20460;-81
2021/09/21 08:20:52;;;;;;;8.90;8.10;;;15.60;98.80;;;;;;5038081;28;20448;-81
2021/09/21 08:23:19;;;;;;;9.90;8.93;;;15.70;98.30;;;;;;5038135;28;20779;-81
2021/09/21 08:25:46;;;;;;;8.40;7.70;;;15.60;97.80;;;;;;5036797;28;20834;-81
2021/09/21 08:28:13;;;;;;;9.43;8.07;;;15.80;98.30;;;;;;5037010;28;20486;-81
2021/09/21 08:30:40;;;;;;;8.93;8.03;;;16.10;98.00;;;;;;5037258;28;20462;-81
2021/09/21 08:33:08;;;;;;;9.30;8.50;;;16.10;96.90;;;;;;5037452;28;20473;-81
2021/09/21 08:35:35;;;;;;;10.50;9.60;;;16.00;96.80;;;;;;5036466;28;20532;-81
2021/09/21 08:38:02;;;;;;;9.20;8.40;;;15.70;96.90;;;;;;5037642;28;20453;-81
2021/09/21 08:40:30;;;;;;;9.93;8.93;;;15.50;96.80;;;;;;5037451;28;20464;-81
2021/09/21 08:42:57;;;;;;;10.00;9.10;;;15.40;97.10;;;;;;5041763;28;20480;-80
2021/09/21 08:45:23;;;;;;;10.30;9.30;;;15.30;97.40;;;;;;5038923;28;20455;-81
2021/09/21 08:47:50;;;;;;;8.47;7.57;;;15.30;97.10;;;;;;5036947;28;20481;-81
2021/09/21 08:50:19;;;;;;;9.33;8.40;;;15.20;97.00;;;;;;5036844;28;20454;-82
2021/09/21 08:52:45;;;;;;;8.70;8.00;;;15.20;97.50;;;;;;5036968;28;20456;-81
2021/09/21 08:55:14;;;;;;;7.40;6.80;;;15.20;96.80;;;;;;5036550;28;20453;-81
2021/09/21 08:57:42;;;;;;;7.43;6.73;;;15.30;97.40;;;;;;5036289;28;20455;-81
2021/09/21 09:00:12;;;;;;;7.43;6.87;;;15.50;96.80;;;;;;5036408;28;20465;-80
2021/09/21 09:02:38;;;;;;;7.87;7.07;;;15.60;96.00;;;;;;5036120;28;20979;-81
2021/09/21 09:05:08;;;;;;;7.50;6.80;;;15.70;96.20;;;;;;5035662;28;20888;-81
2021/09/21 09:07:48;;;;;;;7.43;6.83;;;15.70;95.20;;;;;;5035569;28;20505;-81
2021/09/21 09:10:15;;;;;;;7.73;7.13;;;15.60;95.30;;;;;;5035675;28;20437;-81
2021/09/21 09:12:41;;;;;;;8.27;7.37;;;15.60;94.40;;;;;;5036356;28;20455;-81
2021/09/21 09:15:14;;;;;;;8.27;7.50;;;15.60;94.40;;;;;;5035844;28;20958;-81
2021/09/21 09:17:53;;;;;;;7.50;6.80;;;15.70;95.00;;;;;;5035917;28;20446;-80
2021/09/21 09:20:31;;;;;;;7.93;7.23;;;15.70;94.30;;;;;;5035922;28;20456;-81
2021/09/21 09:22:59;;;;;;;7.23;6.53;;;16.00;94.60;;;;;;5035786;28;20974;-81
2021/09/21 09:25:26;;;;;;;8.37;7.60;;;16.10;94.30;;;;;;5035200;28;20461;-81
2021/09/21 09:27:53;;;;;;;8.00;7.33;;;16.30;93.30;;;;;;5035591;28;20487;-81
2021/09/21 09:30:22;;;;;;;8.20;7.60;;;16.50;93.20;;;;;;5035702;28;20456;-81
2021/09/21 09:32:51;;;;;;;7.50;6.90;;;16.70;92.40;;;;;;5035131;28;20509;-81
2021/09/21 09:35:25;;;;;;;7.87;7.27;;;16.80;92.40;;;;;;5035049;28;20454;-81
2021/09/21 09:37:52;;;;;;;7.93;7.13;;;16.80;91.70;;;;;;5035498;28;20457;-81
2021/09/21 09:40:21;;;;;;;7.97;7.20;;;16.70;91.90;;;;;;5035646;28;20460;-81
2021/09/21 09:42:49;;;;;;;9.23;7.90;;;16.70;92.20;;;;;;5035312;28;20482;-81
2021/09/21 09:45:26;;;;;;;7.07;6.57;;;16.90;92.30;;;;;;5035545;28;20563;-81
2021/09/21 09:47:54;;;;;;;8.37;7.67;;;17.00;91.80;;;;;;5034978;28;20495;-81
2021/09/21 09:50:26;;;;;;;7.77;7.17;;;16.90;91.90;;;;;;5035525;28;20809;-81
2021/09/21 09:53:02;;;;;;;8.00;7.30;;;16.80;91.80;;;;;;5035713;28;20977;-81
2021/09/21 09:55:32;;;;;;;9.03;8.20;;;16.70;91.90;;;;;;5034770;28;20451;-81
2021/09/21 09:57:59;;;;;;;8.67;7.90;;;16.70;91.80;;;;;;5035259;28;21212;-81
2021/09/21 10:00:27;;;;;;;8.13;7.43;;;16.80;92.50;;;;;;5035049;28;20459;-81
2021/09/21 10:02:54;;;;;;;7.80;7.10;;;16.60;91.80;;;;;;5039227;28;20474;-81
2021/09/21 10:05:21;;;;;;;8.03;7.20;;;16.60;92.10;;;;;;5038837;28;20813;-81
2021/09/21 10:07:48;;;;;;;8.53;7.73;;;16.70;92.20;;;;;;5038662;28;20486;-81
2021/09/21 10:10:15;;;;;;;8.87;8.00;;;16.90;92.50;;;;;;5038732;28;20451;-81
2021/09/21 10:12:44;;;;;;;7.70;7.10;;;17.00;92.10;;;;;;5039113;28;20831;-81
2021/09/21 10:15:12;;;;;;;9.50;8.00;;;17.00;91.20;;;;;;5038688;28;20467;-81
2021/09/21 10:17:50;;;;;;;8.47;7.67;;;17.10;91.90;;;;;;5040303;28;20466;-81
2021/09/21 10:20:17;;;;;;;8.10;7.23;;;17.10;91.10;;;;;;5039895;28;20517;-81
2021/09/21 10:22:52;;;;;;;9.07;7.40;;;17.10;91.40;;;;;;5039768;28;20456;-81
2021/09/21 10:25:25;;;;;;;7.57;6.87;;;17.10;90.70;;;;;;5039252;28;20454;-81
2021/09/21 10:27:54;;;;;;;7.87;7.17;;;17.10;91.20;;;;;;5040300;28;20501;-81
2021/09/21 10:30:23;;;;;;;7.90;6.50;;;16.90;90.70;;;;;;5039515;28;20549;-81
2021/09/21 10:32:51;;;;;;;7.93;7.23;;;17.00;90.20;;;;;;5038416;28;20480;-81
2021/09/21 10:35:20;;;;;;;8.00;7.30;;;17.20;91.10;;;;;;5038286;28;20456;-81
2021/09/21 10:37:58;;;;;;;8.10;7.40;;;17.60;91.90;;;;;;5038974;28;20445;-81
2021/09/21 10:40:38;;;;;;;8.60;7.83;;;17.70;90.10;;;;;;5040054;28;20455;-81
2021/09/21 10:43:20;;;;;;;8.47;7.67;;;17.80;90.50;;;;;;5039356;28;20476;-81
2021/09/21 10:45:49;;;;;;;9.40;8.40;;;17.90;89.60;;;;;;5038859;28;20447;-81
2021/09/21 10:48:20;;;;;;;8.53;7.83;;;18.10;90.70;;;;;;5039634;28;20498;-81
2021/09/21 10:50:55;;;;;;;9.03;8.13;;;18.30;90.30;;;;;;5039196;28;20839;-81
2021/09/21 10:53:23;;;;;;;10.33;9.33;;;18.00;87.90;;;;;;5039120;28;20481;-81
2021/09/21 10:55:59;;;;;;;7.77;7.07;;;18.10;89.80;;;;;;5038209;28;20509;-81
2021/09/21 10:58:27;;;;;;;8.60;8.00;;;18.60;88.70;;;;;;5038839;28;20449;-81
2021/09/21 11:00:54;;;;;;;10.57;9.67;;;18.90;86.20;;;;;;5039921;28;20456;-81
2021/09/21 11:03:23;;;;;;;8.50;7.80;;;19.20;86.40;;;;;;5038368;28;20479;-81
2021/09/21 11:05:50;;;;;;;8.30;7.60;;;19.70;85.60;;;;;;5037792;28;20456;-81
2021/09/21 11:08:18;;;;;;;7.83;7.23;;;19.60;84.20;;;;;;5037987;28;20480;-81
2021/09/21 11:10:49;;;;;;;8.47;7.77;;;19.60;84.80;;;;;;5038231;28;20453;-81
2021/09/21 11:13:18;;;;;;;6.80;6.30;;;19.80;84.10;;;;;;5037732;28;20507;-81
2021/09/21 11:15:47;;;;;;;8.63;7.60;;;20.20;86.30;;;;;;5037889;28;20461;-81
2021/09/21 11:18:16;;;;;;;6.80;6.20;;;20.80;84.00;;;;;;5038255;28;20446;-82
2021/09/21 11:20:49;;;;;;;8.37;7.67;;;21.30;85.00;;;;;;5037849;28;20816;-81
2021/09/21 11:23:16;;;;;;;8.10;7.40;;;21.80;78.90;;;;;;5037851;28;20523;-82
2021/09/21 11:25:43;;;;;;;8.87;8.07;;;21.80;77.60;;;;;;5037175;28;20456;-82
2021/09/21 11:28:10;;;;;;;8.83;7.40;;;21.50;76.80;;;;;;5037648;28;20490;-81
2021/09/21 11:30:37;;;;;;;7.43;6.60;;;21.50;76.60;;;;;;5038830;28;20454;-82
2021/09/21 11:33:13;;;;;;;8.37;7.67;;;21.30;76.80;;;;;;5039495;28;20898;-81
2021/09/21 11:35:42;;;;;;;7.67;6.97;;;20.60;76.40;;;;;;5037766;28;20461;-81
2021/09/21 11:38:10;;;;;;;9.03;8.00;;;20.10;77.10;;;;;;5038666;28;20446;-82
2021/09/21 11:40:37;;;;;;;7.73;7.00;;;19.80;78.90;;;;;;5038653;28;20465;-81
2021/09/21 11:43:04;;;;;;;8.07;7.37;;;19.70;81.20;;;;;;5037502;28;20995;-81
2021/09/21 11:45:31;;;;;;;8.47;6.80;;;19.70;79.20;;;;;;5041538;28;20461;-80
2021/09/21 11:47:58;;;;;;;8.27;7.60;;;19.70;81.00;;;;;;5046429;28;20492;-81
2021/09/21 11:50:28;;;;;;;8.20;7.37;;;19.40;80.20;;;;;;5046129;28;20950;-81
2021/09/21 11:52:56;;;;;;;8.33;7.43;;;19.20;81.20;;;;;;5043522;28;20962;-81
2021/09/21 11:55:26;;;;;;;8.77;7.70;;;19.20;81.70;;;;;;5037496;28;20448;-81
2021/09/21 11:57:53;;;;;;;7.73;7.03;;;19.40;82.60;;;;;;5037358;28;20448;-81
2021/09/21 12:00:23;;;;;;;8.80;8.00;;;19.30;81.20;;;;;;5036606;28;20452;-81
2021/09/21 12:02:58;;;;;;;8.37;7.73;;;19.20;81.20;;;;;;5037310;28;20478;-81
2021/09/21 12:05:27;;;;;;;9.70;8.77;;;19.10;81.30;;;;;;5036528;28;20448;-81
2021/09/21 12:07:55;;;;;;;8.90;8.10;;;19.20;81.90;;;;;;5036817;28;20492;-82
2021/09/21 12:10:25;;;;;;;9.17;8.37;;;19.10;80.50;;;;;;5037034;28;20453;-81
2021/09/21 12:13:04;;;;;;;8.77;8.07;;;19.10;81.40;;;;;;5037381;28;20835;-82
2021/09/21 12:15:32;;;;;;;9.63;8.80;;;19.10;80.30;;;;;;5039722;28;21000;-84
2021/09/21 12:18:01;;;;;;;8.63;7.60;;;19.30;80.90;;;;;;5040158;28;20453;-83
2021/09/21 12:20:31;;;;;;;8.00;7.30;;;19.60;81.80;;;;;;5039751;28;20437;-83
2021/09/21 12:22:59;;;;;;;8.83;8.13;;;20.00;81.40;;;;;;5039469;28;20474;-83
2021/09/21 12:25:31;;;;;;;8.37;7.63;;;20.50;80.40;;;;;;5039038;28;20486;-83
2021/09/21 12:27:59;;;;;;;8.13;7.43;;;20.80;79.50;;;;;;5040451;28;20552;-83
2021/09/21 12:30:28;;;;;;;10.80;8.30;;;21.30;78.20;;;;;;5038839;28;20454;-83
2021/09/21 12:32:59;;;;;;;8.50;7.70;;;21.20;76.90;;;;;;5039428;28;20478;-83
2021/09/21 12:35:31;;;;;;;8.10;7.40;;;21.20;78.40;;;;;;5038996;28;20465;-83
2021/09/21 12:38:03;;;;;;;7.50;6.80;;;21.30;77.70;;;;;;5039698;28;20459;-83
2021/09/21 12:40:30;;;;;;;8.20;7.50;;;21.60;76.20;;;;;;5038717;28;20458;-84
2021/09/21 12:42:57;;;;;;;8.70;7.93;;;21.80;75.40;;;;;;5039988;28;20995;-84
2021/09/21 12:45:24;;;;;;;8.00;7.40;;;22.00;76.50;;;;;;5025539;28;20459;-84